Time;durP1;ratioP1;P1;durP2;ratioP2;P2;SDS_P1;SDS_P2;PMS_P1;PMS_P2;Temp;Humidity;BMP_temperature;BMP_pressure;BME280_temperature;BME280_humidity;BME280_pressure;Samples;Min_cycle;Max_cycle;Signal;HPM_P1;HPM_P2
2023/04/06 00:02:42;;;;;;;45.00;19.90;;;;;;;6.52;55.55;101082.30;682956;1262;138849;-82
2023/04/06 00:17:45;;;;;;;73.50;28.40;;;;;;;6.46;56.22;101075.17;682961;1261;138557;-82
2023/04/06 00:32:50;;;;;;;38.40;18.50;;;;;;;6.39;56.63;101068.65;682785;1263;138828;-82
2023/04/06 00:47:53;;;;;;;33.20;16.60;;;;;;;6.35;56.81;101063.31;682751;1263;138624;-82
2023/04/06 01:02:56;;;;;;;28.60;16.00;;;;;;;6.35;57.34;101057.92;683080;1263;138884;-83
2023/04/06 01:18:10;;;;;;;54.40;21.40;;;;;;;6.33;57.95;101059.42;682816;1262;138700;-83
2023/04/06 01:33:16;;;;;;;31.90;15.00;;;;;;;6.28;57.58;101057.85;682903;1257;139318;-82
2023/04/06 01:48:32;;;;;;;31.00;13.70;;;;;;;6.23;58.06;101050.64;682821;1263;139438;-84
2023/04/06 02:03:37;;;;;;;27.90;12.20;;;;;;;6.17;58.34;101044.87;682849;1263;138925;-82
2023/04/06 02:18:44;;;;;;;25.10;12.70;;;;;;;6.15;59.07;101045.83;682933;1257;138404;-82
2023/04/06 02:33:47;;;;;;;35.40;16.70;;;;;;;6.19;58.35;101047.05;682910;1263;138782;-83
2023/04/06 02:48:51;;;;;;;17.60;9.00;;;;;;;6.10;58.74;101041.29;682824;1262;138859;-83
2023/04/06 03:03:54;;;;;;;17.60;9.00;;;;;;;6.10;58.70;101047.02;682724;1261;138827;-83
2023/04/06 03:19:01;;;;;;;28.00;11.30;;;;;;;6.08;58.69;101048.55;682863;1262;138546;-83
2023/04/06 03:34:07;;;;;;;23.30;10.70;;;;;;;6.06;58.89;101053.35;682773;1258;138595;-83
2023/04/06 03:49:11;;;;;;;22.50;11.30;;;;;;;6.02;59.11;101058.20;682868;1261;138876;-84
2023/04/06 04:04:16;;;;;;;25.80;11.40;;;;;;;5.97;59.55;101064.91;682877;1262;138351;-83
2023/04/06 04:19:19;;;;;;;30.70;16.10;;;;;;;5.93;59.55;101066.33;682934;1260;140405;-84
2023/04/06 04:34:25;;;;;;;40.40;19.10;;;;;;;5.88;59.39;101062.98;682733;1270;138262;-84
2023/04/06 04:49:29;;;;;;;48.50;17.90;;;;;;;5.90;59.90;101072.23;682509;1272;138386;-83
2023/04/06 05:04:32;;;;;;;30.10;15.90;;;;;;;5.92;60.43;101074.93;682841;1262;138584;-83
2023/04/06 05:19:36;;;;;;;22.70;12.70;;;;;;;5.98;60.17;101075.48;682796;1261;139838;-83
2023/04/06 05:34:39;;;;;;;30.80;13.70;;;;;;;6.13;60.22;101076.54;682909;1257;138489;-83
2023/04/06 05:49:43;;;;;;;32.50;13.20;;;;;;;6.33;59.94;101071.05;682822;1261;139140;-83
2023/04/06 06:04:51;;;;;;;23.50;11.40;;;;;;;6.45;59.42;101065.48;682888;1259;138529;-84
2023/04/06 06:19:55;;;;;;;31.80;13.20;;;;;;;6.61;59.47;101064.42;682899;1261;139749;-84
2023/04/06 06:34:58;;;;;;;105.50;46.00;;;;;;;6.74;59.07;101062.59;683015;1262;139072;-84
2023/04/06 06:50:03;;;;;;;32.20;14.80;;;;;;;7.14;59.08;101053.23;683084;1262;139855;-84
2023/04/06 07:05:07;;;;;;;18.70;7.70;;;;;;;7.76;58.97;101052.71;683021;1262;138722;-85
2023/04/06 07:20:28;;;;;;;23.20;9.90;;;;;;;8.15;58.35;101047.77;683052;1259;139626;-85
2023/04/06 07:35:32;;;;;;;13.00;7.10;;;;;;;8.43;57.29;101039.98;683074;1261;138717;-86
2023/04/06 07:50:35;;;;;;;57.80;32.80;;;;;;;9.02;56.47;101037.41;682923;1259;138464;-85
2023/04/06 08:05:39;;;;;;;13.70;7.40;;;;;;;9.94;55.70;101034.55;682865;1259;138429;-85
2023/04/06 08:20:42;;;;;;;15.70;6.40;;;;;;;9.89;54.23;101039.63;682602;1262;137882;-85
2023/04/06 08:35:45;;;;;;;50.10;25.40;;;;;;;9.70;53.15;101033.83;682999;1262;139116;-86
2023/04/06 08:50:49;;;;;;;29.90;15.00;;;;;;;9.17;52.39;101023.48;682867;1261;139488;-83
2023/04/06 09:05:53;;;;;;;19.60;10.80;;;;;;;9.44;52.54;101030.80;682997;1261;140892;-84
2023/04/06 09:21:01;;;;;;;51.70;24.10;;;;;;;9.57;52.80;101033.39;683117;1262;138606;-85
2023/04/06 09:36:05;;;;;;;10.00;5.80;;;;;;;9.56;52.15;101026.42;683100;1259;138397;-84
2023/04/06 09:51:13;;;;;;;36.50;21.20;;;;;;;9.79;52.39;101012.25;683049;1262;137662;-86
2023/04/06 10:06:25;;;;;;;6.90;5.20;;;;;;;9.94;51.78;101003.64;683336;1257;137408;-85
2023/04/06 10:21:32;;;;;;;15.40;8.20;;;;;;;10.27;51.46;100996.33;683358;1261;138412;-84
2023/04/06 10:36:36;;;;;;;35.40;18.50;;;;;;;10.92;51.31;100982.95;683323;1261;140721;-84
2023/04/06 10:51:39;;;;;;;19.60;9.20;;;;;;;11.27;51.11;100971.15;683284;1262;138306;-85
2023/04/06 11:06:47;;;;;;;18.00;10.20;;;;;;;11.24;51.00;100961.36;683484;1261;138237;-85
2023/04/06 11:21:51;;;;;;;28.50;13.90;;;;;;;10.90;51.07;100947.97;683483;1261;137617;-83
2023/04/06 11:36:59;;;;;;;27.60;13.10;;;;;;;10.59;51.61;100934.44;683646;1261;138919;-84
2023/04/06 11:52:03;;;;;;;;;;;;;;;10.45;51.89;100918.54;683560;1260;138388;-83
2023/04/06 12:07:06;;;;;;;28.40;13.20;;;;;;;10.13;53.32;100911.54;683612;1263;125487;-85
2023/04/06 12:22:09;;;;;;;11.50;5.40;;;;;;;9.94;54.32;100904.35;683464;1262;136998;-83
2023/04/06 12:37:12;;;;;;;21.00;9.90;;;;;;;10.07;54.45;100885.59;683139;1262;138188;-86
2023/04/06 12:52:16;;;;;;;43.30;18.30;;;;;;;10.13;55.14;100878.13;683238;1263;140103;-83
2023/04/06 13:07:19;;;;;;;32.20;14.60;;;;;;;10.26;55.09;100869.62;683586;1263;137950;-85
2023/04/06 13:22:23;;;;;;;27.60;12.30;;;;;;;10.01;54.87;100862.77;683297;1261;137782;-85
2023/04/06 13:37:26;;;;;;;10.60;5.80;;;;;;;9.72;54.99;100848.92;683091;1262;138173;-84
2023/04/06 13:52:29;;;;;;;66.70;28.40;;;;;;;9.53;55.09;100831.14;683308;1262;137584;-87
2023/04/06 14:07:32;;;;;;;43.10;17.80;;;;;;;9.53;55.12;100817.49;683364;1262;138220;-87
2023/04/06 14:22:36;;;;;;;23.60;10.30;;;;;;;9.61;55.04;100803.66;683500;1263;138173;-88
2023/04/06 14:37:39;;;;;;;10.20;6.30;;;;;;;9.62;55.24;100805.84;683323;1263;138001;-87
2023/04/06 14:52:42;;;;;;;15.40;6.80;;;;;;;9.44;55.99;100798.29;683414;1261;138382;-87
2023/04/06 15:07:46;;;;;;;13.20;5.20;;;;;;;9.37;56.65;100789.16;682815;1271;137853;-86
2023/04/06 15:22:49;;;;;;;15.70;9.20;;;;;;;9.30;57.14;100779.96;683488;1263;137903;-86
2023/04/06 15:37:53;;;;;;;12.60;6.30;;;;;;;9.05;57.52;100773.89;683266;1262;137344;-86
2023/04/06 15:52:56;;;;;;;36.80;13.70;;;;;;;9.03;58.36;100760.61;683231;1258;138198;-86
2023/04/06 16:07:59;;;;;;;50.60;24.30;;;;;;;8.95;58.55;100761.02;682929;1261;138936;-85
2023/04/06 16:23:03;;;;;;;28.80;15.90;;;;;;;8.78;59.04;100756.88;683104;1264;138776;-84
2023/04/06 16:38:06;;;;;;;18.80;7.70;;;;;;;8.51;59.91;100750.27;683153;1263;139303;-85
2023/04/06 16:53:10;;;;;;;45.30;21.40;;;;;;;8.39;60.50;100741.88;682892;1261;138108;-85
2023/04/06 17:08:13;;;;;;;32.70;13.90;;;;;;;8.23;61.09;100741.77;682859;1263;139746;-85
2023/04/06 17:23:16;;;;;;;30.60;14.90;;;;;;;8.11;61.38;100746.25;683254;1261;139020;-85
2023/04/06 17:38:20;;;;;;;45.60;21.50;;;;;;;8.00;61.55;100757.78;682913;1261;138372;-85
2023/04/06 17:53:29;;;;;;;30.70;12.80;;;;;;;7.83;61.33;100766.11;683118;1260;139282;-85
2023/04/06 18:08:33;;;;;;;42.00;14.80;;;;;;;7.55;61.26;100761.10;682561;1268;167801;-84
2023/04/06 18:23:36;;;;;;;29.60;13.40;;;;;;;7.42;60.98;100764.06;682994;1257;138332;-83
2023/04/06 18:38:43;;;;;;;91.70;35.50;;;;;;;7.47;61.09;100769.96;682850;1257;138457;-82
2023/04/06 18:53:47;;;;;;;27.30;12.50;;;;;;;7.29;61.34;100779.35;682867;1257;138513;-83
2023/04/06 19:08:50;;;;;;;42.60;18.10;;;;;;;7.11;62.18;100767.98;683189;1260;139311;-84
2023/04/06 19:23:55;;;;;;;32.80;15.40;;;;;;;7.10;62.60;100768.40;683184;1260;138963;-84
2023/04/06 19:39:00;;;;;;;42.40;17.70;;;;;;;7.11;63.44;100758.05;682813;1260;139287;-83
2023/04/06 19:54:06;;;;;;;80.90;31.30;;;;;;;7.10;64.11;100772.23;682974;1261;138303;-84
2023/04/06 20:09:10;;;;;;;34.90;14.80;;;;;;;7.06;64.89;100760.82;682943;1257;139331;-84
2023/04/06 20:24:14;;;;;;;29.70;11.90;;;;;;;7.07;65.76;100747.86;683145;1260;137482;-86
2023/04/06 20:39:18;;;;;;;24.30;12.20;;;;;;;7.06;66.66;100737.48;683081;1260;138766;-87
2023/04/06 20:54:21;;;;;;;28.00;13.50;;;;;;;7.08;67.73;100725.59;683204;1260;138512;-86
2023/04/06 21:09:26;;;;;;;32.10;15.90;;;;;;;7.06;68.40;100717.36;682898;1257;138731;-86
2023/04/06 21:24:29;;;;;;;26.30;12.20;;;;;;;7.08;69.13;100709.56;683114;1259;138008;-85
2023/04/06 21:39:35;;;;;;;26.50;13.30;;;;;;;7.14;70.09;100698.17;682992;1257;138662;-85
2023/04/06 21:54:38;;;;;;;45.70;17.80;;;;;;;7.14;70.76;100678.16;683294;1259;139220;-85
2023/04/06 22:09:48;;;;;;;43.30;17.60;;;;;;;7.12;71.29;100664.95;682918;1259;139091;-84
2023/04/06 22:24:53;;;;;;;29.60;14.90;;;;;;;7.11;72.67;100655.40;682998;1260;139576;-85
2023/04/06 22:39:56;;;;;;;26.10;12.40;;;;;;;7.18;73.31;100639.35;682933;1262;139993;-86
2023/04/06 22:55:00;;;;;;;33.00;14.80;;;;;;;7.26;73.33;100631.29;682906;1261;138684;-85
2023/04/06 23:10:03;;;;;;;27.80;13.60;;;;;;;7.30;74.09;100618.48;682993;1261;139078;-85
2023/04/06 23:25:07;;;;;;;25.00;12.40;;;;;;;7.35;74.17;100606.29;682856;1260;139744;-81
2023/04/06 23:40:11;;;;;;;31.50;13.30;;;;;;;7.42;75.08;100598.34;683121;1261;138780;-85
2023/04/06 23:55:14;;;;;;;26.60;12.80;;;;;;;7.44;75.69;100590.58;683421;1260;139268;-85
